METAR & TAF

RJAA 262000Z 36010KT 2000 -RA BR FEW001 SCT003 BKN005 22/21 Q1010 NOSIG RMK 1ST001 4ST003 7ST005 A2984
RJAA 261930Z 33010KT 290V360 2500 -RA BR FEW001 SCT003 BKN005 21/21 Q1010 NOSIG RMK 1ST001 4ST003 6ST005 A2984
RJAA 261900Z 36012KT 3000 -RA BR FEW002 SCT003 BKN005 22/21 Q1010 NOSIG RMK 1ST002 3ST003 6ST005 A2983
RJAA 261830Z 36012KT 3000 -RA BR FEW002 SCT003 BKN005 22/21 Q1010 NOSIG RMK 1ST002 4ST003 6ST005 A2982
RJAA 261800Z 36010KT 2800 -RA BR FEW002 SCT003 BKN005 22/21 Q1010 NOSIG RMK 1ST002 3ST003 6ST005 A2983
RJAA 261730Z 01011KT 2800 -RA BR FEW002 SCT003 BKN006 22/21 Q1009 NOSIG RMK 1ST002 3ST003 6ST006 A2982
RJAA 261700Z 36009KT 2800 -RA BR FEW002 BKN005 BKN008 22/21 Q1010 NOSIG RMK 1ST002 5ST005 7ST008 A2983
RJAA 261630Z 36009KT 5000 -RA BR FEW007 BKN010 22/20 Q1010 NOSIG RMK 1ST007 7ST010 A2983 9999W
RJAA 261600Z 36011KT 9999 FEW009 BKN011 22/20 Q1010 NOSIG RMK 1ST009 7SC011 A2983
RJAA 261530Z 01011KT 9999 FEW010 BKN012 22/20 Q1009 NOSIG RMK 2SC010 7SC012 A2982

TAF RJAA 261708Z 2618/2800 36010KT 6000 FEW008 BKN012
  TEMPO 2618/2700 2000 -RA BR FEW003 BKN005
  TEMPO 2703/2709 4000 -RA BR FEW005 BKN008
  BECMG 2712/2715 FEW005 BKN008
  TEMPO 2715/2721 3000 BR FEW002 BKN005